sensor_id;sensor_type;location;lat;lon;timestamp;P1;durP1;ratioP1;P2;durP2;ratioP2
4895;SDS011;2463;49.948;8.472;2022-12-07T00:01:38;103.68;;;10.65;;
4895;SDS011;2463;49.948;8.472;2022-12-07T00:04:07;103.47;;;11.00;;
4895;SDS011;2463;49.948;8.472;2022-12-07T00:06:37;102.75;;;10.98;;
4895;SDS011;2463;49.948;8.472;2022-12-07T00:09:06;103.25;;;10.35;;
4895;SDS011;2463;49.948;8.472;2022-12-07T00:11:35;104.80;;;11.48;;
4895;SDS011;2463;49.948;8.472;2022-12-07T00:14:03;102.43;;;10.52;;
4895;SDS011;2463;49.948;8.472;2022-12-07T00:16:32;102.03;;;10.32;;
4895;SDS011;2463;49.948;8.472;2022-12-07T00:19:00;105.43;;;10.77;;
4895;SDS011;2463;49.948;8.472;2022-12-07T00:21:30;103.57;;;10.55;;
4895;SDS011;2463;49.948;8.472;2022-12-07T00:23:58;105.18;;;10.95;;
4895;SDS011;2463;49.948;8.472;2022-12-07T00:26:29;103.63;;;10.60;;
4895;SDS011;2463;49.948;8.472;2022-12-07T00:28:59;103.50;;;9.82;;
4895;SDS011;2463;49.948;8.472;2022-12-07T00:31:32;106.40;;;10.55;;
4895;SDS011;2463;49.948;8.472;2022-12-07T00:34:01;101.65;;;9.98;;
4895;SDS011;2463;49.948;8.472;2022-12-07T00:36:28;103.32;;;10.15;;
4895;SDS011;2463;49.948;8.472;2022-12-07T00:38:55;102.07;;;9.77;;
4895;SDS011;2463;49.948;8.472;2022-12-07T00:41:25;99.75;;;9.25;;
4895;SDS011;2463;49.948;8.472;2022-12-07T00:43:53;102.88;;;10.95;;
4895;SDS011;2463;49.948;8.472;2022-12-07T00:46:20;102.35;;;10.25;;
4895;SDS011;2463;49.948;8.472;2022-12-07T00:48:47;105.22;;;10.70;;
4895;SDS011;2463;49.948;8.472;2022-12-07T00:51:15;101.90;;;9.90;;
4895;SDS011;2463;49.948;8.472;2022-12-07T00:53:43;101.15;;;9.38;;
4895;SDS011;2463;49.948;8.472;2022-12-07T00:56:15;102.38;;;10.18;;
4895;SDS011;2463;49.948;8.472;2022-12-07T00:58:43;102.97;;;10.32;;
4895;SDS011;2463;49.948;8.472;2022-12-07T01:01:10;104.03;;;10.15;;
4895;SDS011;2463;49.948;8.472;2022-12-07T01:03:38;100.72;;;9.43;;
4895;SDS011;2463;49.948;8.472;2022-12-07T01:06:05;102.95;;;10.55;;
4895;SDS011;2463;49.948;8.472;2022-12-07T01:08:32;104.93;;;10.18;;
4895;SDS011;2463;49.948;8.472;2022-12-07T01:11:00;103.78;;;10.18;;
4895;SDS011;2463;49.948;8.472;2022-12-07T01:13:29;105.13;;;10.35;;
4895;SDS011;2463;49.948;8.472;2022-12-07T01:15:56;103.07;;;10.02;;
4895;SDS011;2463;49.948;8.472;2022-12-07T01:18:26;105.60;;;10.23;;
4895;SDS011;2463;49.948;8.472;2022-12-07T01:20:58;100.30;;;8.93;;
4895;SDS011;2463;49.948;8.472;2022-12-07T01:23:26;101.25;;;9.00;;
4895;SDS011;2463;49.948;8.472;2022-12-07T01:25:54;101.30;;;8.90;;
4895;SDS011;2463;49.948;8.472;2022-12-07T01:28:24;103.60;;;10.23;;
4895;SDS011;2463;49.948;8.472;2022-12-07T01:31:10;100.72;;;9.85;;
4895;SDS011;2463;49.948;8.472;2022-12-07T01:33:42;102.22;;;9.35;;
4895;SDS011;2463;49.948;8.472;2022-12-07T01:36:20;101.43;;;9.23;;
4895;SDS011;2463;49.948;8.472;2022-12-07T01:38:49;101.28;;;9.52;;
4895;SDS011;2463;49.948;8.472;2022-12-07T01:41:18;99.03;;;8.65;;
4895;SDS011;2463;49.948;8.472;2022-12-07T01:46:37;105.50;;;10.63;;
4895;SDS011;2463;49.948;8.472;2022-12-07T01:49:06;104.55;;;9.90;;
4895;SDS011;2463;49.948;8.472;2022-12-07T01:51:35;101.55;;;9.35;;
4895;SDS011;2463;49.948;8.472;2022-12-07T01:54:04;101.28;;;9.20;;
4895;SDS011;2463;49.948;8.472;2022-12-07T01:56:31;102.53;;;9.40;;
4895;SDS011;2463;49.948;8.472;2022-12-07T01:58:58;104.20;;;10.50;;
4895;SDS011;2463;49.948;8.472;2022-12-07T02:01:27;102.65;;;9.68;;
4895;SDS011;2463;49.948;8.472;2022-12-07T02:03:54;104.35;;;10.50;;
4895;SDS011;2463;49.948;8.472;2022-12-07T02:06:22;103.00;;;9.88;;
4895;SDS011;2463;49.948;8.472;2022-12-07T02:08:52;100.20;;;9.23;;
4895;SDS011;2463;49.948;8.472;2022-12-07T02:11:19;99.90;;;10.25;;
4895;SDS011;2463;49.948;8.472;2022-12-07T02:13:47;105.53;;;10.18;;
4895;SDS011;2463;49.948;8.472;2022-12-07T02:21:51;100.07;;;8.90;;
4895;SDS011;2463;49.948;8.472;2022-12-07T02:24:39;101.53;;;10.02;;
4895;SDS011;2463;49.948;8.472;2022-12-07T02:30:42;104.57;;;9.32;;
4895;SDS011;2463;49.948;8.472;2022-12-07T02:33:14;100.25;;;9.50;;
4895;SDS011;2463;49.948;8.472;2022-12-07T02:35:53;102.72;;;9.23;;
4895;SDS011;2463;49.948;8.472;2022-12-07T02:41:16;105.97;;;10.80;;
4895;SDS011;2463;49.948;8.472;2022-12-07T02:43:52;102.97;;;9.80;;
4895;SDS011;2463;49.948;8.472;2022-12-07T02:46:22;103.70;;;8.98;;
4895;SDS011;2463;49.948;8.472;2022-12-07T02:48:53;107.75;;;10.23;;
4895;SDS011;2463;49.948;8.472;2022-12-07T02:51:21;99.93;;;9.05;;
4895;SDS011;2463;49.948;8.472;2022-12-07T02:53:48;103.45;;;9.65;;
4895;SDS011;2463;49.948;8.472;2022-12-07T03:07:04;100.40;;;8.52;;
4895;SDS011;2463;49.948;8.472;2022-12-07T03:09:38;99.82;;;8.38;;
4895;SDS011;2463;49.948;8.472;2022-12-07T03:12:20;102.57;;;9.27;;
4895;SDS011;2463;49.948;8.472;2022-12-07T03:15:04;99.32;;;8.40;;
4895;SDS011;2463;49.948;8.472;2022-12-07T03:17:37;101.40;;;8.70;;
4895;SDS011;2463;49.948;8.472;2022-12-07T03:20:07;99.60;;;9.23;;
4895;SDS011;2463;49.948;8.472;2022-12-07T03:22:37;103.10;;;9.68;;
4895;SDS011;2463;49.948;8.472;2022-12-07T03:25:08;105.38;;;9.00;;
4895;SDS011;2463;49.948;8.472;2022-12-07T03:30:44;103.70;;;9.05;;
4895;SDS011;2463;49.948;8.472;2022-12-07T03:33:28;99.38;;;9.00;;
4895;SDS011;2463;49.948;8.472;2022-12-07T03:36:04;102.95;;;9.15;;
4895;SDS011;2463;49.948;8.472;2022-12-07T03:38:42;99.35;;;8.57;;
4895;SDS011;2463;49.948;8.472;2022-12-07T03:41:16;98.55;;;8.23;;
4895;SDS011;2463;49.948;8.472;2022-12-07T03:43:49;103.60;;;9.10;;
4895;SDS011;2463;49.948;8.472;2022-12-07T03:49:21;98.50;;;7.75;;
4895;SDS011;2463;49.948;8.472;2022-12-07T03:57:55;97.88;;;7.85;;
4895;SDS011;2463;49.948;8.472;2022-12-07T04:00:25;101.15;;;8.55;;
4895;SDS011;2463;49.948;8.472;2022-12-07T04:02:52;97.53;;;8.18;;
4895;SDS011;2463;49.948;8.472;2022-12-07T04:05:19;100.10;;;9.07;;
4895;SDS011;2463;49.948;8.472;2022-12-07T04:07:46;102.47;;;8.07;;
4895;SDS011;2463;49.948;8.472;2022-12-07T04:10:13;99.82;;;8.77;;
4895;SDS011;2463;49.948;8.472;2022-12-07T04:12:40;105.55;;;9.40;;
4895;SDS011;2463;49.948;8.472;2022-12-07T04:15:07;98.88;;;8.23;;
4895;SDS011;2463;49.948;8.472;2022-12-07T04:17:34;98.78;;;7.80;;
4895;SDS011;2463;49.948;8.472;2022-12-07T04:20:01;100.47;;;8.70;;
4895;SDS011;2463;49.948;8.472;2022-12-07T04:22:30;100.85;;;8.80;;
4895;SDS011;2463;49.948;8.472;2022-12-07T04:24:56;99.28;;;8.50;;
4895;SDS011;2463;49.948;8.472;2022-12-07T04:27:23;98.45;;;8.00;;
4895;SDS011;2463;49.948;8.472;2022-12-07T04:29:50;96.95;;;7.68;;
4895;SDS011;2463;49.948;8.472;2022-12-07T04:32:17;102.75;;;8.77;;
4895;SDS011;2463;49.948;8.472;2022-12-07T04:34:43;102.43;;;9.30;;
4895;SDS011;2463;49.948;8.472;2022-12-07T04:37:10;97.18;;;7.72;;
4895;SDS011;2463;49.948;8.472;2022-12-07T04:39:37;98.57;;;8.18;;
4895;SDS011;2463;49.948;8.472;2022-12-07T04:42:03;98.65;;;8.10;;
4895;SDS011;2463;49.948;8.472;2022-12-07T04:44:30;101.10;;;8.60;;
4895;SDS011;2463;49.948;8.472;2022-12-07T04:46:57;99.53;;;8.63;;
4895;SDS011;2463;49.948;8.472;2022-12-07T04:49:24;97.72;;;8.00;;
4895;SDS011;2463;49.948;8.472;2022-12-07T04:51:51;100.03;;;8.35;;
4895;SDS011;2463;49.948;8.472;2022-12-07T04:54:18;99.72;;;8.30;;
4895;SDS011;2463;49.948;8.472;2022-12-07T04:56:45;99.18;;;8.50;;
4895;SDS011;2463;49.948;8.472;2022-12-07T04:59:13;97.65;;;7.85;;
4895;SDS011;2463;49.948;8.472;2022-12-07T05:01:41;98.40;;;8.95;;
4895;SDS011;2463;49.948;8.472;2022-12-07T05:04:08;102.35;;;8.80;;
4895;SDS011;2463;49.948;8.472;2022-12-07T05:06:35;98.93;;;8.13;;
4895;SDS011;2463;49.948;8.472;2022-12-07T05:09:02;100.60;;;8.88;;
4895;SDS011;2463;49.948;8.472;2022-12-07T05:11:29;102.78;;;9.18;;
4895;SDS011;2463;49.948;8.472;2022-12-07T05:14:07;101.30;;;8.82;;
4895;SDS011;2463;49.948;8.472;2022-12-07T05:16:42;100.35;;;8.73;;
4895;SDS011;2463;49.948;8.472;2022-12-07T05:19:10;99.40;;;8.52;;
4895;SDS011;2463;49.948;8.472;2022-12-07T05:21:37;101.43;;;8.70;;
4895;SDS011;2463;49.948;8.472;2022-12-07T05:24:05;102.35;;;8.63;;
4895;SDS011;2463;49.948;8.472;2022-12-07T05:26:32;100.45;;;8.48;;
4895;SDS011;2463;49.948;8.472;2022-12-07T05:28:59;99.30;;;8.50;;
4895;SDS011;2463;49.948;8.472;2022-12-07T05:31:26;96.85;;;8.30;;
4895;SDS011;2463;49.948;8.472;2022-12-07T05:33:53;101.25;;;9.55;;
4895;SDS011;2463;49.948;8.472;2022-12-07T05:36:20;100.00;;;8.60;;
4895;SDS011;2463;49.948;8.472;2022-12-07T05:38:47;101.97;;;9.25;;
4895;SDS011;2463;49.948;8.472;2022-12-07T05:41:15;102.43;;;8.90;;
4895;SDS011;2463;49.948;8.472;2022-12-07T05:44:02;103.30;;;8.52;;
4895;SDS011;2463;49.948;8.472;2022-12-07T05:46:29;103.82;;;9.00;;
4895;SDS011;2463;49.948;8.472;2022-12-07T05:48:55;100.90;;;8.95;;
4895;SDS011;2463;49.948;8.472;2022-12-07T05:51:22;100.25;;;8.95;;
4895;SDS011;2463;49.948;8.472;2022-12-07T05:53:49;98.97;;;7.68;;
4895;SDS011;2463;49.948;8.472;2022-12-07T05:56:16;101.13;;;9.30;;
4895;SDS011;2463;49.948;8.472;2022-12-07T05:58:42;102.35;;;9.65;;
4895;SDS011;2463;49.948;8.472;2022-12-07T06:01:28;100.10;;;8.75;;
4895;SDS011;2463;49.948;8.472;2022-12-07T06:03:54;101.28;;;9.13;;
4895;SDS011;2463;49.948;8.472;2022-12-07T06:06:21;104.35;;;9.50;;
4895;SDS011;2463;49.948;8.472;2022-12-07T06:08:48;103.57;;;10.48;;
4895;SDS011;2463;49.948;8.472;2022-12-07T06:11:15;102.20;;;9.80;;
4895;SDS011;2463;49.948;8.472;2022-12-07T06:14:00;102.75;;;9.63;;
4895;SDS011;2463;49.948;8.472;2022-12-07T06:16:26;99.80;;;9.35;;
4895;SDS011;2463;49.948;8.472;2022-12-07T06:18:53;100.28;;;9.05;;
4895;SDS011;2463;49.948;8.472;2022-12-07T06:21:20;101.32;;;8.77;;
4895;SDS011;2463;49.948;8.472;2022-12-07T06:23:47;98.75;;;9.88;;
4895;SDS011;2463;49.948;8.472;2022-12-07T06:26:14;103.28;;;9.63;;
4895;SDS011;2463;49.948;8.472;2022-12-07T06:28:40;103.28;;;10.35;;
4895;SDS011;2463;49.948;8.472;2022-12-07T06:31:07;102.28;;;8.90;;
4895;SDS011;2463;49.948;8.472;2022-12-07T06:33:41;99.72;;;9.50;;
4895;SDS011;2463;49.948;8.472;2022-12-07T06:36:08;102.10;;;10.00;;
4895;SDS011;2463;49.948;8.472;2022-12-07T06:38:35;102.30;;;9.35;;
4895;SDS011;2463;49.948;8.472;2022-12-07T06:41:02;99.82;;;9.13;;
4895;SDS011;2463;49.948;8.472;2022-12-07T06:43:29;102.47;;;9.40;;
4895;SDS011;2463;49.948;8.472;2022-12-07T06:45:56;102.78;;;9.10;;
4895;SDS011;2463;49.948;8.472;2022-12-07T06:48:23;102.57;;;9.60;;
4895;SDS011;2463;49.948;8.472;2022-12-07T06:50:49;101.63;;;10.30;;
4895;SDS011;2463;49.948;8.472;2022-12-07T06:53:20;102.03;;;9.68;;
4895;SDS011;2463;49.948;8.472;2022-12-07T06:55:47;100.15;;;9.32;;
4895;SDS011;2463;49.948;8.472;2022-12-07T06:58:14;106.28;;;10.30;;
4895;SDS011;2463;49.948;8.472;2022-12-07T07:00:41;101.65;;;10.02;;
4895;SDS011;2463;49.948;8.472;2022-12-07T07:03:09;102.45;;;10.40;;
4895;SDS011;2463;49.948;8.472;2022-12-07T07:05:35;106.10;;;9.65;;
4895;SDS011;2463;49.948;8.472;2022-12-07T07:08:02;101.22;;;9.20;;
4895;SDS011;2463;49.948;8.472;2022-12-07T07:10:49;106.30;;;10.18;;
4895;SDS011;2463;49.948;8.472;2022-12-07T07:13:16;101.00;;;10.30;;
4895;SDS011;2463;49.948;8.472;2022-12-07T07:15:42;105.10;;;10.43;;
4895;SDS011;2463;49.948;8.472;2022-12-07T07:18:09;102.80;;;9.25;;
4895;SDS011;2463;49.948;8.472;2022-12-07T07:20:36;102.03;;;9.35;;
4895;SDS011;2463;49.948;8.472;2022-12-07T07:23:03;101.47;;;9.52;;
4895;SDS011;2463;49.948;8.472;2022-12-07T07:25:30;103.85;;;10.40;;
4895;SDS011;2463;49.948;8.472;2022-12-07T07:27:57;103.07;;;10.32;;
4895;SDS011;2463;49.948;8.472;2022-12-07T07:30:24;102.13;;;10.82;;
4895;SDS011;2463;49.948;8.472;2022-12-07T07:32:55;105.60;;;10.38;;
4895;SDS011;2463;49.948;8.472;2022-12-07T07:35:26;103.82;;;10.50;;
4895;SDS011;2463;49.948;8.472;2022-12-07T07:37:54;101.50;;;9.60;;
4895;SDS011;2463;49.948;8.472;2022-12-07T07:40:21;103.35;;;10.05;;
4895;SDS011;2463;49.948;8.472;2022-12-07T07:42:48;104.72;;;10.55;;
4895;SDS011;2463;49.948;8.472;2022-12-07T07:45:17;102.25;;;9.07;;
4895;SDS011;2463;49.948;8.472;2022-12-07T07:47:45;101.55;;;9.85;;
4895;SDS011;2463;49.948;8.472;2022-12-07T07:50:11;104.38;;;10.43;;
4895;SDS011;2463;49.948;8.472;2022-12-07T07:52:38;103.45;;;10.55;;
4895;SDS011;2463;49.948;8.472;2022-12-07T07:55:05;99.47;;;9.10;;
4895;SDS011;2463;49.948;8.472;2022-12-07T07:57:35;104.90;;;10.10;;
4895;SDS011;2463;49.948;8.472;2022-12-07T08:00:09;103.55;;;10.40;;
4895;SDS011;2463;49.948;8.472;2022-12-07T08:02:38;104.40;;;10.63;;
4895;SDS011;2463;49.948;8.472;2022-12-07T08:05:05;102.25;;;10.25;;
4895;SDS011;2463;49.948;8.472;2022-12-07T08:07:32;106.10;;;10.63;;
4895;SDS011;2463;49.948;8.472;2022-12-07T08:09:59;103.63;;;10.10;;
4895;SDS011;2463;49.948;8.472;2022-12-07T08:12:27;101.28;;;9.35;;
4895;SDS011;2463;49.948;8.472;2022-12-07T08:14:53;103.95;;;10.65;;
4895;SDS011;2463;49.948;8.472;2022-12-07T08:17:20;102.88;;;9.73;;
4895;SDS011;2463;49.948;8.472;2022-12-07T08:19:47;102.65;;;10.07;;
4895;SDS011;2463;49.948;8.472;2022-12-07T08:22:13;102.15;;;10.55;;
4895;SDS011;2463;49.948;8.472;2022-12-07T08:24:40;102.18;;;9.60;;
4895;SDS011;2463;49.948;8.472;2022-12-07T08:27:06;103.70;;;11.00;;
4895;SDS011;2463;49.948;8.472;2022-12-07T08:29:33;104.50;;;10.95;;
4895;SDS011;2463;49.948;8.472;2022-12-07T08:32:00;101.40;;;9.60;;
4895;SDS011;2463;49.948;8.472;2022-12-07T08:34:34;101.18;;;9.85;;
4895;SDS011;2463;49.948;8.472;2022-12-07T08:37:01;101.40;;;9.60;;
4895;SDS011;2463;49.948;8.472;2022-12-07T08:39:28;101.90;;;10.02;;
4895;SDS011;2463;49.948;8.472;2022-12-07T08:41:57;105.30;;;11.27;;
4895;SDS011;2463;49.948;8.472;2022-12-07T08:44:24;103.93;;;10.45;;
4895;SDS011;2463;49.948;8.472;2022-12-07T08:46:52;103.57;;;10.73;;
4895;SDS011;2463;49.948;8.472;2022-12-07T08:49:26;102.60;;;9.73;;
4895;SDS011;2463;49.948;8.472;2022-12-07T08:51:58;103.43;;;10.88;;
4895;SDS011;2463;49.948;8.472;2022-12-07T08:54:25;102.97;;;9.82;;
4895;SDS011;2463;49.948;8.472;2022-12-07T08:56:52;103.30;;;9.75;;
4895;SDS011;2463;49.948;8.472;2022-12-07T08:59:25;103.20;;;10.32;;
4895;SDS011;2463;49.948;8.472;2022-12-07T09:01:52;104.60;;;10.55;;
4895;SDS011;2463;49.948;8.472;2022-12-07T09:04:19;101.43;;;10.15;;
4895;SDS011;2463;49.948;8.472;2022-12-07T09:06:46;101.50;;;9.80;;
4895;SDS011;2463;49.948;8.472;2022-12-07T09:09:14;101.70;;;10.05;;
4895;SDS011;2463;49.948;8.472;2022-12-07T09:11:41;101.63;;;10.80;;
4895;SDS011;2463;49.948;8.472;2022-12-07T09:14:08;103.82;;;10.55;;
4895;SDS011;2463;49.948;8.472;2022-12-07T09:16:34;100.60;;;9.10;;
4895;SDS011;2463;49.948;8.472;2022-12-07T09:19:01;101.43;;;10.55;;
4895;SDS011;2463;49.948;8.472;2022-12-07T09:21:28;102.45;;;9.55;;
4895;SDS011;2463;49.948;8.472;2022-12-07T09:23:55;100.97;;;9.52;;
4895;SDS011;2463;49.948;8.472;2022-12-07T09:26:21;103.82;;;9.73;;
4895;SDS011;2463;49.948;8.472;2022-12-07T09:28:48;102.32;;;10.20;;
4895;SDS011;2463;49.948;8.472;2022-12-07T09:31:15;102.95;;;9.30;;
4895;SDS011;2463;49.948;8.472;2022-12-07T09:33:58;98.75;;;8.88;;
4895;SDS011;2463;49.948;8.472;2022-12-07T09:36:27;100.55;;;9.60;;
4895;SDS011;2463;49.948;8.472;2022-12-07T09:38:54;100.32;;;9.20;;
4895;SDS011;2463;49.948;8.472;2022-12-07T09:41:21;103.57;;;10.68;;
4895;SDS011;2463;49.948;8.472;2022-12-07T09:43:49;100.15;;;9.55;;
4895;SDS011;2463;49.948;8.472;2022-12-07T09:46:17;100.13;;;9.98;;
4895;SDS011;2463;49.948;8.472;2022-12-07T09:48:46;102.57;;;10.80;;
4895;SDS011;2463;49.948;8.472;2022-12-07T09:51:15;102.03;;;9.70;;
4895;SDS011;2463;49.948;8.472;2022-12-07T09:53:49;103.25;;;9.73;;
4895;SDS011;2463;49.948;8.472;2022-12-07T09:56:18;101.10;;;9.75;;
4895;SDS011;2463;49.948;8.472;2022-12-07T09:58:46;103.32;;;9.98;;
4895;SDS011;2463;49.948;8.472;2022-12-07T10:01:16;103.50;;;10.77;;
4895;SDS011;2463;49.948;8.472;2022-12-07T10:03:52;100.40;;;8.43;;
4895;SDS011;2463;49.948;8.472;2022-12-07T10:06:21;104.93;;;11.35;;
4895;SDS011;2463;49.948;8.472;2022-12-07T10:08:49;100.75;;;11.48;;
4895;SDS011;2463;49.948;8.472;2022-12-07T10:11:16;102.32;;;10.73;;
4895;SDS011;2463;49.948;8.472;2022-12-07T10:13:44;102.32;;;10.15;;
4895;SDS011;2463;49.948;8.472;2022-12-07T10:18:54;100.55;;;8.80;;
4895;SDS011;2463;49.948;8.472;2022-12-07T10:21:22;104.80;;;9.00;;
4895;SDS011;2463;49.948;8.472;2022-12-07T10:24:04;99.05;;;9.13;;
4895;SDS011;2463;49.948;8.472;2022-12-07T10:31:54;100.15;;;9.02;;
4895;SDS011;2463;49.948;8.472;2022-12-07T10:39:42;101.07;;;9.35;;
4895;SDS011;2463;49.948;8.472;2022-12-07T10:44:49;99.75;;;8.82;;
4895;SDS011;2463;49.948;8.472;2022-12-07T10:47:43;100.85;;;9.27;;
4895;SDS011;2463;49.948;8.472;2022-12-07T10:53:17;102.10;;;8.85;;
4895;SDS011;2463;49.948;8.472;2022-12-07T10:56:23;96.60;;;8.27;;
4895;SDS011;2463;49.948;8.472;2022-12-07T11:01:46;96.38;;;8.00;;
4895;SDS011;2463;49.948;8.472;2022-12-07T11:10:13;93.13;;;6.43;;
4895;SDS011;2463;49.948;8.472;2022-12-07T11:27:11;92.85;;;6.35;;
4895;SDS011;2463;49.948;8.472;2022-12-07T11:30:10;92.03;;;6.00;;
4895;SDS011;2463;49.948;8.472;2022-12-07T11:32:51;91.43;;;6.40;;
4895;SDS011;2463;49.948;8.472;2022-12-07T11:35:36;89.68;;;5.28;;
4895;SDS011;2463;49.948;8.472;2022-12-07T11:40:40;92.35;;;5.63;;
4895;SDS011;2463;49.948;8.472;2022-12-07T11:43:18;93.28;;;5.15;;
4895;SDS011;2463;49.948;8.472;2022-12-07T11:45:59;95.15;;;5.65;;
4895;SDS011;2463;49.948;8.472;2022-12-07T11:48:33;91.85;;;5.35;;
4895;SDS011;2463;49.948;8.472;2022-12-07T11:51:06;94.90;;;5.68;;
4895;SDS011;2463;49.948;8.472;2022-12-07T11:56:08;94.13;;;5.78;;
4895;SDS011;2463;49.948;8.472;2022-12-07T11:58:51;92.13;;;6.10;;
4895;SDS011;2463;49.948;8.472;2022-12-07T12:06:38;93.18;;;5.82;;
4895;SDS011;2463;49.948;8.472;2022-12-07T12:09:13;96.78;;;6.00;;
4895;SDS011;2463;49.948;8.472;2022-12-07T12:18:59;95.82;;;6.05;;
4895;SDS011;2463;49.948;8.472;2022-12-07T12:21:00;93.25;;;5.55;;
4895;SDS011;2463;49.948;8.472;2022-12-07T12:26:27;91.38;;;5.90;;
4895;SDS011;2463;49.948;8.472;2022-12-07T12:29:06;94.30;;;5.25;;
4895;SDS011;2463;49.948;8.472;2022-12-07T12:31:46;103.65;;;6.07;;
4895;SDS011;2463;49.948;8.472;2022-12-07T12:34:31;94.78;;;5.70;;
4895;SDS011;2463;49.948;8.472;2022-12-07T12:37:13;92.78;;;5.60;;
4895;SDS011;2463;49.948;8.472;2022-12-07T12:42:58;93.57;;;5.50;;
4895;SDS011;2463;49.948;8.472;2022-12-07T12:45:28;92.38;;;5.20;;
4895;SDS011;2463;49.948;8.472;2022-12-07T12:50:24;96.68;;;5.47;;
4895;SDS011;2463;49.948;8.472;2022-12-07T12:55:44;93.03;;;5.50;;
4895;SDS011;2463;49.948;8.472;2022-12-07T13:00:47;89.18;;;4.57;;
4895;SDS011;2463;49.948;8.472;2022-12-07T13:03:34;89.45;;;4.50;;
4895;SDS011;2463;49.948;8.472;2022-12-07T13:06:17;96.68;;;4.72;;
4895;SDS011;2463;49.948;8.472;2022-12-07T13:08:53;90.05;;;4.38;;
4895;SDS011;2463;49.948;8.472;2022-12-07T13:11:28;88.03;;;4.20;;
4895;SDS011;2463;49.948;8.472;2022-12-07T13:19:59;87.78;;;3.90;;
4895;SDS011;2463;49.948;8.472;2022-12-07T13:24:57;91.25;;;4.00;;
4895;SDS011;2463;49.948;8.472;2022-12-07T13:27:31;87.70;;;4.10;;
4895;SDS011;2463;49.948;8.472;2022-12-07T13:29:59;88.68;;;3.72;;
4895;SDS011;2463;49.948;8.472;2022-12-07T13:32:27;87.63;;;3.67;;
4895;SDS011;2463;49.948;8.472;2022-12-07T13:34:55;86.63;;;3.50;;
4895;SDS011;2463;49.948;8.472;2022-12-07T13:37:29;86.60;;;3.63;;
4895;SDS011;2463;49.948;8.472;2022-12-07T13:40:17;88.30;;;4.00;;
4895;SDS011;2463;49.948;8.472;2022-12-07T13:42:46;87.22;;;3.75;;
4895;SDS011;2463;49.948;8.472;2022-12-07T13:45:32;89.13;;;4.47;;
4895;SDS011;2463;49.948;8.472;2022-12-07T13:51:01;89.88;;;4.20;;
4895;SDS011;2463;49.948;8.472;2022-12-07T13:53:29;88.05;;;4.15;;
4895;SDS011;2463;49.948;8.472;2022-12-07T13:55:57;89.50;;;4.40;;
4895;SDS011;2463;49.948;8.472;2022-12-07T13:58:26;92.80;;;4.47;;
4895;SDS011;2463;49.948;8.472;2022-12-07T14:00:55;89.22;;;4.22;;
4895;SDS011;2463;49.948;8.472;2022-12-07T14:03:30;92.13;;;4.93;;
4895;SDS011;2463;49.948;8.472;2022-12-07T14:06:15;90.82;;;4.90;;
4895;SDS011;2463;49.948;8.472;2022-12-07T14:08:45;90.28;;;4.78;;
4895;SDS011;2463;49.948;8.472;2022-12-07T14:11:17;90.97;;;5.32;;
4895;SDS011;2463;49.948;8.472;2022-12-07T14:14:19;90.93;;;4.93;;
4895;SDS011;2463;49.948;8.472;2022-12-07T14:19:40;92.38;;;5.28;;
4895;SDS011;2463;49.948;8.472;2022-12-07T14:22:31;92.05;;;5.03;;
4895;SDS011;2463;49.948;8.472;2022-12-07T14:25:18;92.32;;;5.63;;
4895;SDS011;2463;49.948;8.472;2022-12-07T14:27:57;92.50;;;5.25;;
4895;SDS011;2463;49.948;8.472;2022-12-07T14:30:30;93.78;;;5.40;;
4895;SDS011;2463;49.948;8.472;2022-12-07T14:32:59;95.93;;;5.43;;
4895;SDS011;2463;49.948;8.472;2022-12-07T14:35:34;93.03;;;5.40;;
4895;SDS011;2463;49.948;8.472;2022-12-07T14:38:07;92.05;;;5.32;;
4895;SDS011;2463;49.948;8.472;2022-12-07T14:40:34;94.03;;;6.03;;
4895;SDS011;2463;49.948;8.472;2022-12-07T14:43:02;92.93;;;5.80;;
4895;SDS011;2463;49.948;8.472;2022-12-07T14:45:30;94.30;;;5.85;;
4895;SDS011;2463;49.948;8.472;2022-12-07T14:47:57;97.88;;;6.32;;
4895;SDS011;2463;49.948;8.472;2022-12-07T14:50:45;92.70;;;6.13;;
4895;SDS011;2463;49.948;8.472;2022-12-07T14:53:39;92.60;;;5.50;;
4895;SDS011;2463;49.948;8.472;2022-12-07T14:56:09;95.00;;;6.30;;
4895;SDS011;2463;49.948;8.472;2022-12-07T14:58:35;94.45;;;5.53;;
4895;SDS011;2463;49.948;8.472;2022-12-07T15:01:02;93.60;;;5.85;;
4895;SDS011;2463;49.948;8.472;2022-12-07T15:03:29;94.13;;;5.90;;
4895;SDS011;2463;49.948;8.472;2022-12-07T15:05:56;97.00;;;6.22;;
4895;SDS011;2463;49.948;8.472;2022-12-07T15:08:23;94.25;;;5.85;;
4895;SDS011;2463;49.948;8.472;2022-12-07T15:10:50;94.88;;;5.82;;
4895;SDS011;2463;49.948;8.472;2022-12-07T15:13:17;93.63;;;5.68;;
4895;SDS011;2463;49.948;8.472;2022-12-07T15:16:02;95.15;;;6.40;;
4895;SDS011;2463;49.948;8.472;2022-12-07T15:18:29;92.63;;;5.78;;
4895;SDS011;2463;49.948;8.472;2022-12-07T15:20:56;93.35;;;6.43;;
4895;SDS011;2463;49.948;8.472;2022-12-07T15:23:22;94.30;;;5.80;;
4895;SDS011;2463;49.948;8.472;2022-12-07T15:25:49;93.90;;;5.70;;
4895;SDS011;2463;49.948;8.472;2022-12-07T15:28:16;96.28;;;5.93;;
4895;SDS011;2463;49.948;8.472;2022-12-07T15:30:43;94.30;;;6.03;;
4895;SDS011;2463;49.948;8.472;2022-12-07T15:33:11;95.13;;;6.03;;
4895;SDS011;2463;49.948;8.472;2022-12-07T15:35:41;92.72;;;5.85;;
4895;SDS011;2463;49.948;8.472;2022-12-07T15:38:09;93.00;;;5.50;;
4895;SDS011;2463;49.948;8.472;2022-12-07T15:40:37;98.00;;;5.97;;
4895;SDS011;2463;49.948;8.472;2022-12-07T15:43:04;103.35;;;6.20;;
4895;SDS011;2463;49.948;8.472;2022-12-07T15:45:30;94.43;;;5.70;;
4895;SDS011;2463;49.948;8.472;2022-12-07T15:47:57;94.78;;;5.95;;
4895;SDS011;2463;49.948;8.472;2022-12-07T15:50:44;93.22;;;5.65;;
4895;SDS011;2463;49.948;8.472;2022-12-07T15:53:11;94.47;;;6.18;;
4895;SDS011;2463;49.948;8.472;2022-12-07T15:55:40;93.97;;;5.90;;
4895;SDS011;2463;49.948;8.472;2022-12-07T15:58:07;99.07;;;5.90;;
4895;SDS011;2463;49.948;8.472;2022-12-07T16:00:34;94.25;;;5.45;;
4895;SDS011;2463;49.948;8.472;2022-12-07T16:03:00;92.25;;;5.50;;
4895;SDS011;2463;49.948;8.472;2022-12-07T16:05:27;93.45;;;5.82;;
4895;SDS011;2463;49.948;8.472;2022-12-07T16:07:54;102.40;;;5.55;;
4895;SDS011;2463;49.948;8.472;2022-12-07T16:10:20;95.82;;;5.70;;
4895;SDS011;2463;49.948;8.472;2022-12-07T16:12:47;93.18;;;5.60;;
4895;SDS011;2463;49.948;8.472;2022-12-07T16:15:14;92.03;;;5.22;;
4895;SDS011;2463;49.948;8.472;2022-12-07T16:17:48;95.40;;;5.63;;
4895;SDS011;2463;49.948;8.472;2022-12-07T16:20:14;92.90;;;5.43;;
4895;SDS011;2463;49.948;8.472;2022-12-07T16:22:41;92.95;;;5.43;;
4895;SDS011;2463;49.948;8.472;2022-12-07T16:25:08;92.97;;;5.85;;
4895;SDS011;2463;49.948;8.472;2022-12-07T16:27:35;94.38;;;5.80;;
4895;SDS011;2463;49.948;8.472;2022-12-07T16:30:02;96.25;;;5.82;;
4895;SDS011;2463;49.948;8.472;2022-12-07T16:32:29;94.35;;;6.15;;
4895;SDS011;2463;49.948;8.472;2022-12-07T16:34:56;92.90;;;5.55;;
4895;SDS011;2463;49.948;8.472;2022-12-07T16:37:22;100.97;;;6.80;;
4895;SDS011;2463;49.948;8.472;2022-12-07T16:39:49;96.65;;;6.95;;
4895;SDS011;2463;49.948;8.472;2022-12-07T16:42:16;96.05;;;5.88;;
4895;SDS011;2463;49.948;8.472;2022-12-07T16:44:42;95.53;;;6.30;;
4895;SDS011;2463;49.948;8.472;2022-12-07T16:47:09;96.00;;;6.60;;
4895;SDS011;2463;49.948;8.472;2022-12-07T16:49:36;96.18;;;7.28;;
4895;SDS011;2463;49.948;8.472;2022-12-07T16:52:03;95.80;;;6.68;;
4895;SDS011;2463;49.948;8.472;2022-12-07T16:54:47;95.63;;;6.70;;
4895;SDS011;2463;49.948;8.472;2022-12-07T16:57:15;99.28;;;6.50;;
4895;SDS011;2463;49.948;8.472;2022-12-07T16:59:48;96.82;;;6.22;;
4895;SDS011;2463;49.948;8.472;2022-12-07T17:02:15;94.78;;;6.10;;
4895;SDS011;2463;49.948;8.472;2022-12-07T17:04:42;92.72;;;5.75;;
4895;SDS011;2463;49.948;8.472;2022-12-07T17:07:09;95.10;;;5.70;;
4895;SDS011;2463;49.948;8.472;2022-12-07T17:09:36;92.70;;;5.47;;
4895;SDS011;2463;49.948;8.472;2022-12-07T17:12:03;94.95;;;5.85;;
4895;SDS011;2463;49.948;8.472;2022-12-07T17:14:32;94.80;;;5.50;;